Bishop's Stortford, United Kingdom
Current Conditions -  °F | °C
As of 8:20 PM on Thursday 29 Jan 2015 (Local Time) from EGSS Reporting Station
Scattered Clouds Scattered Clouds  
Wind Chill: 25°   Ceiling: Unl
Heat Index: 34°   Visibility: 6mi
Dew Point: 30°   Wind: 12mph
Humidity: 87%   Direction: 290°WNW
Pressure: 28.82"   Gusts: NA
Location:  51.87°N, 0.16°E
Report Text: EGSS 292020Z 29010KT 9999 FEW023 SCT046 01/M01 Q0976
Loading
Personal Weather Stations






























Interactive Weather Map New forecast layout! Learn more

10-Day Weather Forecast

Advertisements
Track Severe Weather on mobile